Time;durP1;ratioP1;P1;durP2;ratioP2;P2;SDS_P1;SDS_P2;PMS_P1;PMS_P2;Temp;Humidity;BMP_temperature;BMP_pressure;BME280_temperature;BME280_humidity;BME280_pressure;Samples;Min_cycle;Max_cycle;Signal;HPM_P1;HPM_P2
2022/09/11 00:00:51;;;;;;;7.05;2.65;;;;;;;14.33;100.00;100634.09;5104763;27;20031;-85
2022/09/11 00:03:23;;;;;;;4.63;2.78;;;;;;;14.34;100.00;100625.09;5102795;27;20027;-84
2022/09/11 00:05:50;;;;;;;9.13;2.92;;;;;;;14.32;100.00;100627.91;5116903;27;20306;-83
2022/09/11 00:08:18;;;;;;;5.93;3.00;;;;;;;14.39;100.00;100636.09;5129106;27;20093;-85
2022/09/11 00:10:46;;;;;;;6.93;2.80;;;;;;;14.39;100.00;100639.56;5112000;27;20433;-85
2022/09/11 00:13:21;;;;;;;5.70;2.25;;;;;;;14.41;100.00;100630.59;5117754;27;20041;-85
2022/09/11 00:15:50;;;;;;;8.18;3.13;;;;;;;14.44;100.00;100633.75;5111907;27;20386;-85
2022/09/11 00:18:20;;;;;;;4.68;2.42;;;;;;;14.42;100.00;100621.59;5117622;27;20039;-85
2022/09/11 00:20:48;;;;;;;6.10;2.22;;;;;;;14.38;100.00;100629.91;5102881;27;20030;-85
2022/09/11 00:23:26;;;;;;;9.73;2.65;;;;;;;14.31;100.00;100620.94;5101769;27;20027;-85
2022/09/11 00:25:52;;;;;;;5.85;2.25;;;;;;;14.31;100.00;100618.28;5130706;27;20039;-86
2022/09/11 00:28:23;;;;;;;8.00;2.53;;;;;;;14.30;100.00;100618.47;5132394;27;20066;-86
2022/09/11 00:31:12;;;;;;;7.90;3.00;;;;;;;14.32;100.00;100608.47;5110031;27;20038;-85
2022/09/11 00:33:39;;;;;;;7.50;2.72;;;;;;;14.31;100.00;100612.97;5099087;27;20042;-84
2022/09/11 00:36:09;;;;;;;8.88;2.42;;;;;;;14.33;100.00;100615.47;5078738;27;20202;-84
2022/09/11 00:38:37;;;;;;;4.47;2.42;;;;;;;14.33;100.00;100618.97;5144335;27;20042;-83
2022/09/11 00:41:07;;;;;;;7.82;2.60;;;;;;;14.33;100.00;100613.66;5127351;27;20546;-83
2022/09/11 00:44:01;;;;;;;6.00;2.40;;;;;;;14.29;100.00;100612.28;5097844;27;20117;-83
2022/09/11 00:46:50;;;;;;;5.28;2.10;;;;;;;14.27;100.00;100598.31;5116086;27;20039;-83
2022/09/11 00:49:37;;;;;;;9.52;2.70;;;;;;;14.22;100.00;100604.13;5109365;27;20030;-83
2022/09/11 00:52:13;;;;;;;6.93;2.72;;;;;;;14.20;100.00;100602.66;5091558;27;20083;-83
2022/09/11 00:54:45;;;;;;;5.95;2.40;;;;;;;14.15;100.00;100600.50;5089228;27;20042;-83
2022/09/11 00:57:11;;;;;;;5.00;2.83;;;;;;;14.12;100.00;100593.69;5096000;27;20045;-83
2022/09/11 00:59:42;;;;;;;8.13;2.85;;;;;;;14.14;100.00;100585.56;5129043;27;20031;-83
2022/09/11 01:02:12;;;;;;;7.32;2.50;;;;;;;14.08;100.00;100575.56;5116585;27;20506;-83
2022/09/11 01:04:38;;;;;;;6.38;2.10;;;;;;;14.06;100.00;100585.53;5106573;27;20114;-83
2022/09/11 01:07:04;;;;;;;6.28;2.40;;;;;;;14.02;100.00;100577.03;5108575;27;20122;-82
2022/09/11 01:09:32;;;;;;;9.18;3.03;;;;;;;13.97;100.00;100571.38;5111650;28;20457;-83
2022/09/11 01:12:48;;;;;;;11.05;1.80;;;;;;;13.85;100.00;100574.38;5122673;27;20039;-83
2022/09/11 01:15:26;;;;;;;3.95;1.92;;;;;;;13.81;100.00;100570.38;5069217;28;20032;-82
2022/09/11 01:18:14;;;;;;;5.55;1.70;;;;;;;13.80;100.00;100571.38;5059161;28;20089;-83
2022/09/11 01:21:17;;;;;;;7.60;2.97;;;;;;;13.79;100.00;100576.84;5089011;27;20043;-82
2022/09/11 01:24:00;;;;;;;4.15;2.13;;;;;;;13.79;100.00;100575.03;5103946;27;20035;-81
2022/09/11 01:26:51;;;;;;;5.28;2.15;;;;;;;13.76;100.00;100576.16;5092124;28;20092;-81
2022/09/11 01:29:23;;;;;;;5.90;2.60;;;;;;;13.70;100.00;100574.16;5096279;27;20037;-82
2022/09/11 01:32:03;;;;;;;7.10;2.25;;;;;;;13.71;100.00;100575.81;5093969;27;20520;-81
2022/09/11 01:35:05;;;;;;;5.25;2.10;;;;;;;13.68;100.00;100583.28;5102134;28;20031;-81
2022/09/11 01:37:53;;;;;;;2.90;1.98;;;;;;;13.62;100.00;100576.78;5094984;27;20031;-81
2022/09/11 01:40:51;;;;;;;2.40;1.55;;;;;;;13.59;100.00;100572.63;5100790;27;20031;-81
2022/09/11 01:43:25;;;;;;;8.50;1.92;;;;;;;13.61;100.00;100569.81;5096920;28;20040;-81
2022/09/11 01:45:55;;;;;;;3.35;1.75;;;;;;;13.59;100.00;100556.69;5112045;27;20042;-81
2022/09/11 01:48:28;;;;;;;4.15;1.80;;;;;;;13.59;100.00;100558.50;5088420;27;20681;-82
2022/09/11 01:50:56;;;;;;;6.28;1.17;;;;;;;13.56;100.00;100550.88;5109581;27;20072;-82
2022/09/11 01:53:27;;;;;;;3.42;1.90;;;;;;;13.43;100.00;100549.47;5114685;27;20607;-81
2022/09/11 01:56:09;;;;;;;9.05;1.52;;;;;;;13.27;100.00;100537.81;5100782;28;20062;-81
2022/09/11 01:58:40;;;;;;;2.85;1.30;;;;;;;13.20;100.00;100542.09;5123645;27;20126;-82
2022/09/11 02:01:18;;;;;;;3.15;1.60;;;;;;;13.20;100.00;100533.31;5092894;27;20027;-81
2022/09/11 02:03:51;;;;;;;6.20;2.15;;;;;;;13.18;100.00;100524.66;5125239;27;20089;-81
2022/09/11 02:06:27;;;;;;;9.30;2.00;;;;;;;13.23;100.00;100528.50;5093074;27;20050;-81
2022/09/11 02:08:58;;;;;;;3.15;1.70;;;;;;;13.22;100.00;100521.53;5114632;27;20042;-81
2022/09/11 02:11:30;;;;;;;2.55;1.73;;;;;;;13.20;100.00;100515.56;5122563;27;20148;-82
2022/09/11 02:14:04;;;;;;;3.42;1.92;;;;;;;13.20;100.00;100514.72;5089240;27;20031;-81
2022/09/11 02:16:44;;;;;;;4.07;2.20;;;;;;;13.08;100.00;100503.53;5127656;27;20043;-82
2022/09/11 02:19:17;;;;;;;7.75;2.88;;;;;;;13.00;100.00;100509.66;5093165;27;20031;-80
2022/09/11 02:21:46;;;;;;;4.28;1.95;;;;;;;12.93;100.00;100504.16;5108136;28;20039;-81
2022/09/11 02:24:14;;;;;;;6.60;2.47;;;;;;;12.90;100.00;100499.16;5092634;28;20027;-81
2022/09/11 02:26:44;;;;;;;7.78;2.47;;;;;;;12.91;100.00;100503.50;5080128;28;20078;-81
2022/09/11 02:29:12;;;;;;;7.70;2.83;;;;;;;12.93;100.00;100504.16;5101447;28;20027;-81
2022/09/11 02:31:39;;;;;;;8.13;2.55;;;;;;;12.98;100.00;100498.38;5131161;27;20030;-81
2022/09/11 02:34:04;;;;;;;7.80;3.03;;;;;;;12.98;100.00;100488.59;5112530;28;20403;-82
2022/09/11 02:36:55;;;;;;;7.53;2.83;;;;;;;13.01;100.00;100496.22;5111219;28;20035;-81
2022/09/11 02:39:44;;;;;;;4.35;2.20;;;;;;;13.00;100.00;100485.78;5092645;28;20073;-81
2022/09/11 02:42:36;;;;;;;5.25;2.97;;;;;;;12.97;100.00;100480.78;5106073;28;20035;-82
2022/09/11 02:45:31;;;;;;;6.03;2.55;;;;;;;13.00;100.00;100475.16;5108136;28;20724;-81
2022/09/11 02:48:18;;;;;;;5.47;2.35;;;;;;;13.01;100.00;100475.00;5088098;28;20027;-81
2022/09/11 02:50:48;;;;;;;7.25;2.20;;;;;;;13.02;100.00;100468.72;5085409;28;20058;-80
2022/09/11 02:53:13;;;;;;;4.80;2.00;;;;;;;13.01;100.00;100475.00;5122762;28;20071;-80
2022/09/11 02:56:03;;;;;;;4.38;1.88;;;;;;;13.01;100.00;100469.69;5089229;28;20031;-82
2022/09/11 02:58:39;;;;;;;6.43;2.70;;;;;;;12.93;100.00;100471.50;5091283;28;20100;-80
2022/09/11 03:01:07;;;;;;;7.70;3.05;;;;;;;12.82;100.00;100470.75;5090430;28;20028;-81
2022/09/11 03:03:40;;;;;;;7.78;3.03;;;;;;;12.75;100.00;100462.63;5125855;28;20039;-81
2022/09/11 03:06:10;;;;;;;10.48;2.53;;;;;;;12.62;100.00;100456.91;5095238;28;20384;-81
2022/09/11 03:08:39;;;;;;;11.45;2.85;;;;;;;12.59;100.00;100465.19;5104503;28;20032;-80
2022/09/11 03:11:07;;;;;;;4.50;2.67;;;;;;;12.55;100.00;100454.06;5112242;28;20042;-81
2022/09/11 03:13:32;;;;;;;7.03;2.80;;;;;;;12.53;100.00;100456.06;5091524;28;20050;-81
2022/09/11 03:16:03;;;;;;;4.78;2.50;;;;;;;12.50;100.00;100449.22;5109623;28;20069;-80
2022/09/11 03:18:31;;;;;;;3.88;2.22;;;;;;;12.50;100.00;100446.56;5099050;28;20039;-81
2022/09/11 03:20:57;;;;;;;2.55;1.88;;;;;;;12.55;100.00;100451.41;5090341;28;20031;-81
2022/09/11 03:23:24;;;;;;;3.10;1.80;;;;;;;12.51;100.00;100448.25;5097409;28;20087;-81
2022/09/11 03:25:51;;;;;;;6.80;2.60;;;;;;;12.42;100.00;100443.91;5111250;28;20042;-81
2022/09/11 03:28:17;;;;;;;7.13;2.50;;;;;;;12.32;100.00;100443.16;5115326;27;20039;-81
2022/09/11 03:30:43;;;;;;;5.43;2.33;;;;;;;12.24;100.00;100439.47;5098321;28;20031;-81
2022/09/11 03:33:10;;;;;;;7.55;2.65;;;;;;;12.15;100.00;100432.47;5107441;27;20036;-80
2022/09/11 03:35:36;;;;;;;7.28;2.50;;;;;;;12.13;100.00;100431.78;5135728;27;20043;-81
2022/09/11 03:38:02;;;;;;;2.53;2.10;;;;;;;12.13;100.00;100424.66;5112775;28;20122;-81
2022/09/11 03:40:27;;;;;;;5.20;2.55;;;;;;;12.19;100.00;100425.84;5110506;28;20378;-81
2022/09/11 03:42:53;;;;;;;5.00;2.17;;;;;;;12.30;100.00;100426.56;5109334;28;20043;-81
2022/09/11 03:45:20;;;;;;;5.25;1.98;;;;;;;12.35;100.00;100414.53;5107981;27;20547;-81
2022/09/11 03:47:46;;;;;;;4.28;1.92;;;;;;;12.37;100.00;100419.69;5111315;27;20034;-81
2022/09/11 03:50:11;;;;;;;4.40;2.45;;;;;;;12.39;100.00;100412.41;5107550;27;20068;-81
2022/09/11 03:52:38;;;;;;;2.20;1.70;;;;;;;12.46;100.00;100402.81;5095669;27;20415;-81
2022/09/11 03:55:05;;;;;;;7.20;2.10;;;;;;;12.50;100.00;100393.56;5097732;27;20043;-81
2022/09/11 03:57:35;;;;;;;4.20;2.17;;;;;;;12.52;100.00;100380.97;5110071;28;20038;-82
2022/09/11 04:00:03;;;;;;;2.15;1.70;;;;;;;12.54;100.00;100378.16;5092868;27;20076;-81
2022/09/11 04:02:45;;;;;;;5.35;1.95;;;;;;;12.58;100.00;100376.03;5126186;27;20080;-81
2022/09/11 04:05:13;;;;;;;4.68;1.75;;;;;;;12.62;100.00;100380.03;5106203;27;20027;-80
2022/09/11 04:07:40;;;;;;;10.68;1.88;;;;;;;12.66;100.00;100389.34;5124861;27;20031;-80
2022/09/11 04:10:06;;;;;;;5.55;1.80;;;;;;;12.68;100.00;100386.53;5127247;27;20061;-81
2022/09/11 04:12:32;;;;;;;5.75;2.20;;;;;;;12.72;100.00;100380.75;5093685;27;20027;-81
2022/09/11 04:15:01;;;;;;;3.88;1.70;;;;;;;12.76;100.00;100384.72;5106531;28;20035;-81
2022/09/11 04:17:30;;;;;;;4.35;1.85;;;;;;;12.80;100.00;100379.09;5145832;27;20034;-81
2022/09/11 04:19:57;;;;;;;3.35;1.58;;;;;;;12.90;100.00;100390.38;5108853;27;20034;-81
2022/09/11 04:22:23;;;;;;;5.25;1.73;;;;;;;12.90;100.00;100380.63;5112024;28;20032;-80
2022/09/11 04:24:50;;;;;;;5.97;1.50;;;;;;;12.89;100.00;100373.66;5094061;27;20121;-81
2022/09/11 04:27:17;;;;;;;2.00;1.33;;;;;;;12.97;100.00;100369.34;5124501;27;20035;-81
2022/09/11 04:29:45;;;;;;;10.40;2.13;;;;;;;12.98;100.00;100360.44;5085813;27;20392;-81
2022/09/11 04:32:12;;;;;;;4.30;2.83;;;;;;;12.90;100.00;100367.34;5124041;27;20035;-81
2022/09/11 04:34:39;;;;;;;11.68;2.03;;;;;;;12.86;100.00;100368.69;5107632;27;20084;-81
2022/09/11 04:37:05;;;;;;;3.42;1.75;;;;;;;12.89;100.00;100365.72;5103322;28;20473;-80
2022/09/11 04:39:31;;;;;;;3.38;1.52;;;;;;;12.95;100.00;100366.06;5090121;28;20046;-81
2022/09/11 04:41:57;;;;;;;3.90;1.88;;;;;;;12.95;100.00;100356.25;5089102;28;20403;-81
2022/09/11 04:44:25;;;;;;;2.80;1.50;;;;;;;13.00;100.00;100351.31;5112790;28;20032;-80
2022/09/11 04:46:51;;;;;;;3.80;1.95;;;;;;;13.02;100.00;100351.97;5092581;27;20097;-81
2022/09/11 04:49:17;;;;;;;3.72;1.70;;;;;;;12.99;100.00;100349.66;5094149;27;20043;-81
2022/09/11 04:51:45;;;;;;;5.28;1.60;;;;;;;12.95;100.00;100352.78;5090742;27;20496;-81
2022/09/11 04:54:16;;;;;;;4.28;2.13;;;;;;;12.94;100.00;100353.75;5110909;27;20568;-81
2022/09/11 04:56:43;;;;;;;5.75;1.92;;;;;;;12.88;100.00;100353.41;5094994;27;20039;-81
2022/09/11 04:59:12;;;;;;;8.05;2.20;;;;;;;12.86;100.00;100343.97;5111357;27;20038;-81
2022/09/11 05:01:39;;;;;;;6.80;2.05;;;;;;;12.80;100.00;100337.50;5117651;27;20046;-81
2022/09/11 05:04:05;;;;;;;3.22;1.80;;;;;;;12.81;100.00;100341.81;5107312;27;20031;-81
2022/09/11 05:06:31;;;;;;;6.95;2.28;;;;;;;12.81;100.00;100344.44;5084508;28;20046;-81
2022/09/11 05:09:03;;;;;;;4.07;1.75;;;;;;;12.83;100.00;100344.28;5108050;28;20052;-81
2022/09/11 05:11:30;;;;;;;3.35;1.88;;;;;;;12.85;100.00;100345.78;5094529;28;20039;-81
2022/09/11 05:13:59;;;;;;;8.18;1.85;;;;;;;12.93;100.00;100346.81;5114776;27;20043;-81
2022/09/11 05:16:28;;;;;;;2.78;1.50;;;;;;;13.00;100.00;100356.59;5109326;27;20483;-81
2022/09/11 05:18:55;;;;;;;8.07;2.10;;;;;;;13.05;100.00;100356.13;5101584;27;20039;-82
2022/09/11 05:21:24;;;;;;;2.47;1.48;;;;;;;13.06;100.00;100356.97;5095929;27;20038;-80
2022/09/11 05:23:52;;;;;;;6.78;2.50;;;;;;;13.09;100.00;100352.13;5090806;27;20027;-81
2022/09/11 05:26:21;;;;;;;7.15;2.00;;;;;;;13.11;100.00;100352.81;5113248;27;20031;-80
2022/09/11 05:28:52;;;;;;;5.22;2.10;;;;;;;13.13;100.00;100357.94;5131637;27;20495;-81
2022/09/11 05:31:18;;;;;;;6.15;1.92;;;;;;;13.09;100.00;100356.63;5118871;27;20035;-81
2022/09/11 05:33:45;;;;;;;5.15;2.20;;;;;;;13.01;100.00;100352.94;5084523;28;20495;-81
2022/09/11 05:36:12;;;;;;;7.22;2.38;;;;;;;12.96;100.00;100357.94;5124445;27;20476;-81
2022/09/11 05:38:38;;;;;;;3.63;1.77;;;;;;;12.84;100.00;100351.25;5125150;27;20482;-80
2022/09/11 05:41:06;;;;;;;5.15;1.85;;;;;;;12.83;100.00;100353.09;5086990;27;20039;-81
2022/09/11 05:43:32;;;;;;;5.13;2.13;;;;;;;12.68;100.00;100344.09;5086290;27;20023;-81
2022/09/11 05:45:59;;;;;;;6.28;2.50;;;;;;;12.58;100.00;100344.22;5089534;27;20039;-81
2022/09/11 05:48:28;;;;;;;5.85;2.53;;;;;;;12.57;100.00;100340.72;5114457;27;20483;-80
2022/09/11 05:51:00;;;;;;;4.07;2.30;;;;;;;12.60;100.00;100335.09;5120677;27;20038;-81
2022/09/11 05:53:29;;;;;;;5.05;2.00;;;;;;;12.63;100.00;100334.78;5123539;27;20028;-80
2022/09/11 05:55:55;;;;;;;3.58;2.10;;;;;;;12.69;100.00;100321.88;5140386;27;20067;-81
2022/09/11 05:58:22;;;;;;;2.15;1.80;;;;;;;12.76;100.00;100331.69;5122174;27;20502;-81
2022/09/11 06:00:48;;;;;;;2.60;1.55;;;;;;;12.85;100.00;100340.47;5110290;27;20039;-80
2022/09/11 06:03:16;;;;;;;7.13;2.15;;;;;;;12.91;100.00;100339.00;5086663;28;20035;-80
2022/09/11 06:05:43;;;;;;;3.78;2.00;;;;;;;12.94;100.00;100327.22;5107096;27;20133;-81
2022/09/11 06:08:10;;;;;;;3.58;1.95;;;;;;;12.95;100.00;100328.91;5130410;27;20088;-80
2022/09/11 06:10:46;;;;;;;3.17;1.63;;;;;;;12.95;100.00;100329.72;5119093;27;20050;-80
2022/09/11 06:13:19;;;;;;;3.47;2.28;;;;;;;12.93;100.00;100329.09;5110186;27;20041;-80
2022/09/11 06:15:48;;;;;;;4.70;2.10;;;;;;;12.92;100.00;100324.75;5144051;27;20444;-80
2022/09/11 06:18:15;;;;;;;2.42;2.15;;;;;;;12.89;100.00;100328.56;5095621;27;20038;-81
2022/09/11 06:20:41;;;;;;;9.07;2.50;;;;;;;12.85;100.00;100321.09;5141778;27;20083;-81
2022/09/11 06:23:13;;;;;;;3.50;2.20;;;;;;;12.80;100.00;100318.09;5119684;27;20465;-80
2022/09/11 06:25:39;;;;;;;2.80;1.98;;;;;;;12.80;100.00;100318.94;5107946;27;20035;-80
2022/09/11 06:28:05;;;;;;;8.35;1.85;;;;;;;12.84;100.00;100314.13;5092072;27;20084;-80
2022/09/11 06:30:32;;;;;;;3.72;2.03;;;;;;;12.83;100.00;100321.25;5096282;28;20038;-81
2022/09/11 06:32:58;;;;;;;7.65;2.10;;;;;;;12.80;100.00;100313.63;5093728;27;20035;-80
2022/09/11 06:35:23;;;;;;;4.65;2.55;;;;;;;12.76;100.00;100313.13;5094170;28;20475;-80
2022/09/11 06:37:49;;;;;;;4.93;2.47;;;;;;;12.71;100.00;100312.75;5112541;27;20022;-80
2022/09/11 06:40:16;;;;;;;3.50;2.30;;;;;;;12.70;100.00;100310.28;5100859;27;20027;-80
2022/09/11 06:42:42;;;;;;;5.20;2.28;;;;;;;12.72;100.00;100324.22;5128834;27;20122;-81
2022/09/11 06:45:09;;;;;;;4.10;2.25;;;;;;;12.77;100.00;100314.75;5110885;27;20018;-80
2022/09/11 06:47:35;;;;;;;4.68;2.10;;;;;;;12.79;100.00;100314.59;5119799;27;20057;-81
2022/09/11 06:50:02;;;;;;;4.30;3.13;;;;;;;12.85;100.00;100318.44;5103095;27;20386;-80
2022/09/11 06:52:37;;;;;;;8.05;4.53;;;;;;;12.88;100.00;100312.81;5105341;28;20054;-80
2022/09/11 06:55:24;;;;;;;9.10;3.10;;;;;;;12.83;100.00;100309.81;5125863;28;20034;-81
2022/09/11 06:57:55;;;;;;;9.25;3.60;;;;;;;12.85;100.00;100316.59;5116431;27;20031;-80
2022/09/11 07:00:25;;;;;;;5.43;3.03;;;;;;;12.85;100.00;100313.13;5084859;27;20483;-80
2022/09/11 07:02:51;;;;;;;6.85;2.65;;;;;;;12.88;100.00;100313.63;5109759;27;20035;-80
2022/09/11 07:05:18;;;;;;;4.10;2.70;;;;;;;12.89;100.00;100314.47;5124285;27;20091;-81
2022/09/11 07:07:49;;;;;;;4.50;3.08;;;;;;;12.97;100.00;100308.34;5128591;27;20094;-81
2022/09/11 07:10:16;;;;;;;6.63;3.58;;;;;;;13.01;100.00;100312.34;5116250;27;20095;-81
2022/09/11 07:12:41;;;;;;;9.02;4.50;;;;;;;13.06;100.00;100309.19;5108372;27;20027;-81
2022/09/11 07:15:08;;;;;;;7.70;3.50;;;;;;;13.09;100.00;100307.03;5116168;27;20087;-80
2022/09/11 07:17:35;;;;;;;4.63;2.50;;;;;;;13.12;100.00;100306.69;5119773;27;20464;-80
2022/09/11 07:20:06;;;;;;;6.32;2.38;;;;;;;13.15;100.00;100301.06;5099837;27;20023;-81
2022/09/11 07:22:33;;;;;;;4.68;2.80;;;;;;;13.18;100.00;100305.22;5111697;27;20114;-81
2022/09/11 07:24:59;;;;;;;3.80;2.10;;;;;;;13.22;100.00;100297.78;5108222;27;20470;-81
2022/09/11 07:27:30;;;;;;;3.85;1.95;;;;;;;13.20;100.00;100297.94;5098211;27;20027;-81
2022/09/11 07:29:57;;;;;;;5.00;1.92;;;;;;;13.21;100.00;100299.59;5110592;27;20440;-81
2022/09/11 07:32:25;;;;;;;5.53;2.47;;;;;;;13.24;100.00;100291.28;5130746;27;20034;-82
2022/09/11 07:34:52;;;;;;;8.70;2.28;;;;;;;13.31;100.00;100287.97;5100803;27;20099;-83
2022/09/11 07:37:18;;;;;;;5.50;2.10;;;;;;;13.31;100.00;100275.53;5129671;27;20023;-82
2022/09/11 07:39:43;;;;;;;4.22;2.20;;;;;;;13.33;100.00;100278.03;5096378;27;20045;-82
2022/09/11 07:42:16;;;;;;;6.85;2.45;;;;;;;13.32;100.00;100263.91;5099564;27;20026;-82
2022/09/11 07:44:43;;;;;;;7.70;1.73;;;;;;;13.38;100.00;100259.75;5120982;27;20121;-81
2022/09/11 07:47:09;;;;;;;6.55;2.45;;;;;;;13.41;100.00;100264.72;5117111;27;20058;-81
2022/09/11 07:49:40;;;;;;;5.88;2.42;;;;;;;13.44;100.00;100258.28;5115671;27;20081;-81
2022/09/11 07:52:06;;;;;;;6.90;2.47;;;;;;;13.45;100.00;100258.09;5104818;27;20088;-82
2022/09/11 07:54:40;;;;;;;6.63;2.42;;;;;;;13.47;100.00;100256.09;5110282;27;20046;-81
2022/09/11 07:57:06;;;;;;;8.35;2.67;;;;;;;13.51;100.00;100256.63;5129804;27;20023;-82
2022/09/11 07:59:31;;;;;;;12.75;2.58;;;;;;;13.54;100.00;100250.97;5109635;27;20414;-82
2022/09/11 08:01:58;;;;;;;4.68;2.17;;;;;;;13.59;100.00;100253.13;5103521;27;20051;-82
2022/09/11 08:04:24;;;;;;;4.93;2.10;;;;;;;13.64;100.00;100254.28;5058953;27;20430;-81
2022/09/11 08:06:50;;;;;;;9.02;2.65;;;;;;;13.67;100.00;100253.09;5056810;27;20038;-81
2022/09/11 08:09:20;;;;;;;7.07;2.40;;;;;;;13.66;100.00;100254.13;5116874;27;20050;-81
2022/09/11 08:11:54;;;;;;;7.40;1.90;;;;;;;13.67;100.00;100239.81;5138497;27;20035;-81
2022/09/11 08:14:21;;;;;;;4.75;1.80;;;;;;;13.75;100.00;100238.97;5105876;27;20030;-83
2022/09/11 08:16:48;;;;;;;4.88;1.88;;;;;;;13.79;100.00;100242.97;5096911;27;20057;-82
2022/09/11 08:19:21;;;;;;;6.30;2.60;;;;;;;13.87;100.00;100239.44;5106020;27;20030;-81
2022/09/11 08:21:52;;;;;;;5.05;2.35;;;;;;;13.88;100.00;100238.44;5100359;27;20092;-82
2022/09/11 08:24:23;;;;;;;8.43;2.72;;;;;;;13.89;100.00;100227.63;5092155;27;20031;-83
2022/09/11 08:26:52;;;;;;;5.43;2.70;;;;;;;13.91;100.00;100227.47;5113306;27;20034;-83
2022/09/11 08:29:18;;;;;;;6.65;3.00;;;;;;;13.92;100.00;100223.81;5094542;27;20368;-84
2022/09/11 08:31:45;;;;;;;10.40;3.10;;;;;;;13.93;100.00;100214.84;5145775;27;20497;-82
2022/09/11 08:34:12;;;;;;;5.72;2.78;;;;;;;13.96;100.00;100213.66;5114260;27;20027;-85
2022/09/11 08:36:38;;;;;;;7.47;2.80;;;;;;;13.98;100.00;100206.34;5096092;27;20042;-83
2022/09/11 08:39:05;;;;;;;7.35;3.33;;;;;;;14.00;100.00;100213.16;5097493;27;20083;-84
2022/09/11 08:41:55;;;;;;;7.28;3.25;;;;;;;14.03;100.00;100193.34;5108047;27;20039;-84
2022/09/11 08:44:32;;;;;;;;;;;;;;;13.99;100.00;100192.06;5109904;27;20046;-83
2022/09/11 08:47:17;;;;;;;3.92;3.00;;;;;;;14.10;100.00;100183.72;5115023;27;20414;-85
2022/09/11 08:50:02;;;;;;;9.55;3.38;;;;;;;14.18;100.00;100182.00;5098587;27;20031;-83
2022/09/11 08:52:34;;;;;;;10.48;3.28;;;;;;;14.22;100.00;100176.16;5121058;27;20069;-84
2022/09/11 08:55:01;;;;;;;7.53;3.08;;;;;;;14.31;100.00;100171.63;5106464;27;20114;-80
2022/09/11 08:57:27;;;;;;;6.78;2.70;;;;;;;14.35;100.00;100164.94;5093824;27;20038;-83
2022/09/11 08:59:53;;;;;;;8.85;3.03;;;;;;;14.41;100.00;100158.13;5094472;27;20035;-83
2022/09/11 09:02:45;;;;;;;8.38;2.90;;;;;;;14.48;100.00;100159.03;5114300;27;20113;-82
2022/09/11 09:05:26;;;;;;;9.77;2.85;;;;;;;14.52;100.00;100146.22;5114228;27;20105;-81
2022/09/11 09:08:25;;;;;;;16.77;2.72;;;;;;;14.55;100.00;100142.38;5094829;27;20045;-81
2022/09/11 09:11:11;;;;;;;8.13;2.65;;;;;;;14.58;100.00;100140.19;5090155;27;20084;-82
2022/09/11 09:13:56;;;;;;;;;;;;;;;14.50;100.00;100135.78;5091228;27;20126;-85
2022/09/11 09:16:45;;;;;;;4.63;2.45;;;;;;;14.59;100.00;100139.19;5110571;27;19911;-84
2022/09/11 09:19:31;;;;;;;6.50;2.50;;;;;;;14.60;100.00;100124.06;5111103;27;20027;-87
2022/09/11 09:22:05;;;;;;;7.65;2.30;;;;;;;14.63;100.00;100121.03;5096091;27;20035;-83
2022/09/11 09:24:40;;;;;;;8.68;2.53;;;;;;;14.68;100.00;100117.84;5100690;27;20424;-82
2022/09/11 09:27:06;;;;;;;8.80;2.15;;;;;;;14.67;100.00;100129.50;5114046;27;20046;-84
2022/09/11 09:29:37;;;;;;;4.45;1.77;;;;;;;14.70;100.00;100116.66;5115103;27;20058;-82
2022/09/11 09:32:10;;;;;;;4.90;1.60;;;;;;;14.68;100.00;100115.19;5125637;27;20104;-81
2022/09/11 09:34:39;;;;;;;4.07;1.75;;;;;;;14.68;100.00;100110.69;5113172;27;20019;-82
2022/09/11 09:37:20;;;;;;;6.65;2.03;;;;;;;14.70;100.00;100105.19;5114980;27;20027;-81
2022/09/11 09:39:47;;;;;;;9.75;2.72;;;;;;;14.69;100.00;100115.00;5126517;27;20148;-80
2022/09/11 09:42:35;;;;;;;4.63;1.40;;;;;;;14.71;100.00;100120.97;5098000;27;20039;-82
2022/09/11 09:45:13;;;;;;;6.50;1.75;;;;;;;14.73;100.00;100110.97;5109878;27;20035;-81
2022/09/11 09:47:43;;;;;;;7.10;1.90;;;;;;;14.74;100.00;100109.13;5110602;27;20039;-81
2022/09/11 09:50:27;;;;;;;4.75;1.77;;;;;;;14.74;100.00;100106.47;5134626;27;20494;-83
2022/09/11 09:53:13;;;;;;;5.13;1.85;;;;;;;14.78;100.00;100112.28;5044362;27;20110;-81
2022/09/11 09:55:39;;;;;;;7.90;1.77;;;;;;;14.78;100.00;100106.97;5104563;27;20023;-86
2022/09/11 09:58:06;;;;;;;3.63;1.65;;;;;;;14.80;100.00;100096.97;5113526;27;20035;-85
2022/09/11 10:00:36;;;;;;;7.93;2.30;;;;;;;14.84;100.00;100091.09;5096366;27;20031;-82
2022/09/11 10:03:18;;;;;;;4.15;1.63;;;;;;;14.84;100.00;100080.47;5100224;27;20038;-81
2022/09/11 10:05:45;;;;;;;3.60;1.20;;;;;;;14.84;100.00;100077.81;5142432;27;20459;-82
2022/09/11 10:08:34;;;;;;;3.65;1.33;;;;;;;14.86;100.00;100069.63;5109043;27;20035;-81
2022/09/11 10:11:02;;;;;;;6.55;1.80;;;;;;;14.88;100.00;100057.81;5108674;27;20492;-81
2022/09/11 10:13:31;;;;;;;6.15;1.17;;;;;;;14.92;100.00;100058.28;5096371;27;20528;-80
2022/09/11 10:16:00;;;;;;;5.70;1.00;;;;;;;14.94;100.00;100058.09;5109416;27;20034;-80
2022/09/11 10:18:29;;;;;;;5.30;2.05;;;;;;;14.96;100.00;100043.59;5129445;27;20431;-80
2022/09/11 10:21:10;;;;;;;2.00;0.85;;;;;;;14.99;100.00;100043.22;5106717;27;20042;-80
2022/09/11 10:23:51;;;;;;;2.60;0.93;;;;;;;15.03;100.00;100034.88;5144708;27;20038;-81
2022/09/11 10:26:28;;;;;;;2.95;0.90;;;;;;;15.06;100.00;100038.00;5103775;27;20410;-81
2022/09/11 10:28:59;;;;;;;1.55;0.70;;;;;;;15.07;100.00;100020.19;5111968;27;20441;-84
2022/09/11 10:31:25;;;;;;;1.30;0.60;;;;;;;15.12;100.00;100026.63;5086220;28;20031;-80
2022/09/11 10:33:57;;;;;;;1.55;0.80;;;;;;;15.18;100.00;100034.88;5122812;27;20123;-82
2022/09/11 10:36:26;;;;;;;3.63;0.82;;;;;;;15.16;100.00;100028.91;5109274;27;20375;-81
2022/09/11 10:38:53;;;;;;;2.53;0.70;;;;;;;15.16;100.00;100023.59;5114916;27;20051;-82
2022/09/11 10:41:22;;;;;;;0.90;0.57;;;;;;;15.19;100.00;100023.22;5124114;27;20042;-84
2022/09/11 10:44:01;;;;;;;1.20;0.52;;;;;;;15.20;100.00;100028.34;5106878;27;20045;-82
2022/09/11 10:46:28;;;;;;;3.67;0.47;;;;;;;15.22;100.00;100020.19;5139148;27;20648;-81
2022/09/11 10:49:23;;;;;;;2.47;0.63;;;;;;;15.24;100.00;100016.31;5103516;27;20049;-82
2022/09/11 10:52:07;;;;;;;2.67;0.52;;;;;;;15.25;100.00;100004.66;5140937;27;20125;-81
2022/09/11 10:54:43;;;;;;;0.98;0.40;;;;;;;15.30;100.00;100004.13;5125481;27;20038;-80
2022/09/11 10:57:32;;;;;;;0.60;0.30;;;;;;;15.34;100.00;99993.88;5088949;27;20031;-80
2022/09/11 11:00:09;;;;;;;0.40;0.32;;;;;;;15.38;100.00;99989.84;5143200;27;20059;-79
2022/09/11 11:02:39;;;;;;;0.90;0.47;;;;;;;15.41;100.00;99978.84;5111601;27;20867;-78
2022/09/11 11:05:33;;;;;;;2.00;0.30;;;;;;;15.46;100.00;99981.75;5127651;27;20027;-81
2022/09/11 11:08:45;;;;;;;0.68;0.40;;;;;;;15.48;100.00;99976.25;5129630;27;20057;-79
2022/09/11 11:11:14;;;;;;;0.85;0.38;;;;;;;15.52;100.00;99969.53;5110661;27;20091;-79
2022/09/11 11:14:20;;;;;;;0.28;0.20;;;;;;;15.57;100.00;99967.13;5125274;27;20031;-81
2022/09/11 11:17:10;;;;;;;1.70;0.30;;;;;;;15.59;100.00;99964.28;5139234;27;20039;-79
2022/09/11 11:19:52;;;;;;;0.55;0.30;;;;;;;15.63;100.00;99950.38;5114624;27;20474;-80
2022/09/11 11:22:42;;;;;;;2.92;0.20;;;;;;;15.71;100.00;99951.25;5142981;27;20044;-77
2022/09/11 11:25:33;;;;;;;0.75;0.20;;;;;;;15.75;100.00;99948.00;5109144;27;20120;-78
2022/09/11 11:28:07;;;;;;;0.68;0.30;;;;;;;15.78;100.00;99941.50;5122641;27;20034;-80
2022/09/11 11:31:15;;;;;;;1.25;0.30;;;;;;;15.82;100.00;99933.94;5107888;27;20121;-83
2022/09/11 11:34:03;;;;;;;0.50;0.20;;;;;;;15.87;100.00;99944.84;5094415;27;20045;-81
2022/09/11 11:36:54;;;;;;;0.63;0.20;;;;;;;15.92;100.00;99944.25;5127588;27;20484;-81
2022/09/11 11:39:28;;;;;;;0.20;0.20;;;;;;;15.97;100.00;99936.53;5090781;27;20031;-78
2022/09/11 18:41:01;;;;;;;3.22;0.70;;;;;;;18.65;100.00;99720.91;5579073;23;20045;-92